A80 TRACON Summary / KATL TAF
ATL TRACON Summary:
A low pressure system near the GA/SC coast will keep MVFR/low VFR conditions in the TRACON airspace overnight. Patchy drizzle/light rain will end early Sunday morning. Surface winds will be from the northeast at 8-15kts with occasional 18-25kt gusts. Expect LGT-MOD turbulence below 100 and possible LLWS in the TRACON airspace.

Updated:4/19/2014 8:20 PM
ATL Terminal Aerodrome Forecast:

FTUS80 KATL 200200 AAA
KATL 200158Z 2002/2106 05015G25KT P6SM -DZ VCSH SCT015 OVC035
     FM200700 06015G25KT P6SM OVC015
     FM201100 05012G22KT P6SM BKN045
     FM202000 07012KT P6SM SCT060
     FM210000 08008KT P6SM SCT250
ATL TRACON Area Remark:
None.
Convective Gate Forecast / Collaborative Convective Forecast Product / Vertical Wind Profile
Convective Gate Forecast
AIRMETs & SIGMETS/ Southeast Radar loop / Satellite Image (click on image to enlarge)

Southeast Radar Loop

 



USA.gov is the U.S. government's official web portal to all federal, state and local government web resources and services.